createdAt,value
2017-05-28T00:00:28.560Z,17.50
2017-05-28T00:02:56.124Z,17.50
2017-05-28T00:05:24.729Z,17.40
2017-05-28T00:07:53.056Z,17.50
2017-05-28T00:16:30.662Z,17.40
2017-05-28T00:18:58.990Z,17.40
2017-05-28T00:21:27.344Z,17.40
2017-05-28T00:23:55.734Z,17.40
2017-05-28T00:26:24.073Z,17.40
2017-05-28T00:28:52.402Z,17.40
2017-05-28T00:31:20.775Z,17.30
2017-05-28T00:33:49.729Z,17.30
2017-05-28T00:36:18.066Z,17.30
2017-05-28T00:38:46.960Z,17.30
2017-05-28T00:41:15.373Z,17.30
2017-05-28T00:43:43.710Z,17.30
2017-05-28T00:46:13.104Z,17.20
2017-05-28T00:48:41.432Z,17.30
2017-05-28T00:51:09.765Z,17.20
2017-05-28T00:53:38.129Z,17.20
2017-05-28T00:56:06.443Z,17.30
2017-05-28T00:58:34.770Z,17.20
2017-05-28T01:01:03.229Z,17.20
2017-05-28T01:03:31.548Z,17.20
2017-05-28T01:05:59.868Z,17.20
2017-05-28T01:08:28.964Z,17.20
2017-05-28T01:10:57.505Z,17.20
2017-05-28T01:13:25.868Z,17.10
2017-05-28T01:15:54.324Z,17.10
2017-05-28T01:18:22.693Z,17.10
2017-05-28T01:20:51.952Z,17.10
2017-05-28T01:23:20.543Z,17.10
2017-05-28T01:25:48.936Z,17.10
2017-05-28T01:28:17.256Z,17.10
2017-05-28T01:30:45.653Z,17.10
2017-05-28T01:33:13.994Z,17.10
2017-05-28T01:35:42.324Z,17.10
2017-05-28T01:38:10.691Z,17.10
2017-05-28T01:40:39.056Z,17.10
2017-05-28T01:43:07.381Z,17.10
2017-05-28T01:45:36.058Z,17.00
2017-05-28T01:48:04.385Z,17.00
2017-05-28T01:50:32.708Z,17.00
2017-05-28T01:53:01.497Z,17.00
2017-05-28T01:55:29.820Z,17.00
2017-05-28T01:57:58.149Z,17.00
2017-05-28T02:00:26.888Z,17.00
2017-05-28T02:02:55.229Z,16.90
2017-05-28T02:05:23.553Z,16.90
2017-05-28T02:07:52.029Z,16.90
2017-05-28T02:10:20.358Z,16.90
2017-05-28T02:12:48.684Z,16.90
2017-05-28T02:15:17.209Z,16.90
2017-05-28T02:17:45.538Z,16.90
2017-05-28T02:20:13.867Z,16.90
2017-05-28T02:22:42.373Z,16.90
2017-05-28T02:25:10.704Z,16.90
2017-05-28T02:27:40.117Z,16.90
2017-05-28T02:30:08.577Z,16.90
2017-05-28T02:32:36.901Z,16.80
2017-05-28T02:35:05.222Z,16.70
2017-05-28T02:37:33.951Z,16.80
2017-05-28T02:40:02.270Z,16.80
2017-05-28T02:42:30.588Z,16.80
2017-05-28T02:44:58.302Z,16.80
2017-05-28T02:47:26.637Z,16.80
2017-05-28T02:49:54.965Z,16.80
2017-05-28T02:52:23.352Z,16.70
2017-05-28T02:54:51.684Z,16.80
2017-05-28T02:57:20.003Z,16.80
2017-05-28T02:59:48.575Z,16.70
2017-05-28T03:02:16.897Z,16.70
2017-05-28T03:04:45.221Z,16.70
2017-05-28T03:07:13.673Z,16.70
2017-05-28T03:09:42.001Z,16.70
2017-05-28T03:12:10.323Z,16.70
2017-05-28T03:14:38.908Z,16.70
2017-05-28T03:17:07.237Z,16.70
2017-05-28T03:19:35.560Z,16.70
2017-05-28T03:22:04.061Z,16.80
2017-05-28T03:24:32.389Z,16.80
2017-05-28T03:27:00.766Z,16.80
2017-05-28T03:29:29.165Z,16.80
2017-05-28T03:31:57.489Z,16.90
2017-05-28T03:34:25.827Z,16.90
2017-05-28T03:36:54.203Z,16.90
2017-05-28T03:39:22.550Z,16.90
2017-05-28T03:41:50.869Z,16.90
2017-05-28T03:44:19.237Z,17.00
2017-05-28T03:46:47.557Z,17.10
2017-05-28T03:49:15.893Z,17.10
2017-05-28T03:51:43.493Z,17.10
2017-05-28T03:54:11.826Z,17.20
2017-05-28T03:56:40.611Z,17.30
2017-05-28T03:59:09.015Z,17.40
2017-05-28T04:01:37.387Z,17.50
2017-05-28T04:04:06.686Z,17.60
2017-05-28T04:06:35.372Z,17.70
2017-05-28T04:09:04.617Z,17.80
2017-05-28T04:11:32.949Z,17.90
2017-05-28T04:14:01.356Z,18.00
2017-05-28T04:16:29.688Z,18.00
2017-05-28T04:18:58.025Z,18.10
2017-05-28T04:21:26.472Z,18.20
2017-05-28T04:23:54.805Z,18.20
2017-05-28T04:26:23.140Z,18.30
2017-05-28T04:28:51.794Z,18.30
2017-05-28T04:31:20.129Z,18.40
2017-05-28T04:33:48.457Z,18.40
2017-05-28T04:36:16.213Z,18.40
2017-05-28T04:38:44.548Z,18.40
2017-05-28T04:41:12.882Z,18.40
2017-05-28T04:43:41.254Z,18.40
2017-05-28T04:46:09.588Z,18.30
2017-05-28T04:48:37.908Z,18.30
2017-05-28T04:51:06.305Z,18.30
2017-05-28T04:53:34.636Z,18.40
2017-05-28T04:56:02.964Z,18.40
2017-05-28T04:58:32.438Z,18.40
2017-05-28T05:01:00.771Z,18.30
2017-05-28T05:03:29.108Z,18.40
2017-05-28T05:05:57.633Z,18.40
2017-05-28T05:08:25.987Z,18.40
2017-05-28T05:10:54.329Z,18.40
2017-05-28T05:13:23.026Z,18.50
2017-05-28T05:15:51.353Z,18.50
2017-05-28T05:18:20.292Z,18.70
2017-05-28T05:20:48.796Z,18.90
2017-05-28T05:23:17.132Z,19.10
2017-05-28T05:25:44.772Z,19.10
2017-05-28T05:28:13.592Z,19.20
2017-05-28T05:30:41.932Z,19.30
2017-05-28T05:33:09.521Z,19.30
2017-05-28T05:35:37.268Z,19.40
2017-05-28T05:38:05.600Z,19.50
2017-05-28T05:40:33.167Z,19.50
2017-05-28T05:43:01.064Z,19.60
2017-05-28T05:45:28.630Z,19.60
2017-05-28T05:47:56.965Z,19.80
2017-05-28T05:50:24.695Z,19.70
2017-05-28T05:52:53.044Z,19.80
2017-05-28T05:55:21.389Z,19.90
2017-05-28T05:57:49.895Z,20.00
2017-05-28T06:00:18.229Z,20.00
2017-05-28T06:02:45.806Z,20.00
2017-05-28T06:05:14.472Z,20.10
2017-05-28T06:07:42.827Z,20.20
2017-05-28T06:10:11.177Z,20.30
2017-05-28T06:12:40.717Z,20.30
2017-05-28T06:15:09.056Z,20.30
2017-05-28T06:17:37.405Z,20.40
2017-05-28T06:20:05.775Z,20.40
2017-05-28T06:22:34.103Z,20.40
2017-05-28T06:25:02.437Z,20.50
2017-05-28T06:27:30.904Z,20.70
2017-05-28T06:29:59.268Z,20.80
2017-05-28T06:32:27.604Z,20.90
2017-05-28T06:34:55.989Z,21.00
2017-05-28T06:37:24.318Z,21.30
2017-05-28T06:39:52.644Z,21.50
2017-05-28T06:42:21.243Z,21.60
2017-05-28T06:44:49.564Z,21.80
2017-05-28T06:47:17.888Z,21.90
2017-05-28T06:49:46.485Z,22.10
2017-05-28T06:52:14.814Z,22.30
2017-05-28T06:54:43.144Z,22.40
2017-05-28T06:57:11.684Z,22.50
2017-05-28T06:59:40.012Z,22.60
2017-05-28T07:02:07.580Z,22.60
2017-05-28T07:04:36.144Z,22.70
2017-05-28T07:07:05.071Z,22.90
2017-05-28T07:09:33.396Z,23.20
2017-05-28T07:12:01.877Z,23.30
2017-05-28T07:14:30.205Z,23.50
2017-05-28T07:16:58.536Z,23.60
2017-05-28T07:19:27.004Z,23.60
2017-05-28T07:21:55.323Z,23.50
2017-05-28T07:24:23.652Z,23.30
2017-05-28T07:26:52.015Z,23.30
2017-05-28T07:29:20.340Z,23.20
2017-05-28T07:31:48.660Z,23.20
2017-05-28T07:34:17.199Z,23.40
2017-05-28T07:36:45.523Z,23.40
2017-05-28T07:39:13.845Z,23.50
2017-05-28T07:41:42.436Z,23.60
2017-05-28T07:44:10.757Z,23.60
2017-05-28T07:46:39.083Z,23.70
2017-05-28T07:49:07.582Z,23.70
2017-05-28T07:51:35.972Z,23.70
2017-05-28T07:54:04.307Z,23.80
2017-05-28T07:56:32.791Z,23.80
2017-05-28T07:59:01.126Z,23.80
2017-05-28T08:01:29.462Z,23.60
2017-05-28T08:03:58.251Z,23.70
2017-05-28T08:06:26.652Z,23.80
2017-05-28T08:08:54.993Z,23.80
2017-05-28T08:11:23.670Z,23.80
2017-05-28T08:13:52.006Z,23.90
2017-05-28T08:16:20.343Z,23.90
2017-05-28T08:18:48.795Z,24.00
2017-05-28T08:21:17.124Z,24.00
2017-05-28T08:23:45.448Z,23.90
2017-05-28T08:26:14.179Z,23.90
2017-05-28T08:28:42.511Z,23.80
2017-05-28T08:31:10.871Z,24.00
2017-05-28T08:33:39.608Z,24.00
2017-05-28T08:36:08.053Z,23.90
2017-05-28T08:38:36.394Z,23.90
2017-05-28T08:41:04.871Z,23.90
2017-05-28T08:43:33.205Z,23.90
2017-05-28T08:46:01.550Z,23.90
2017-05-28T08:48:30.054Z,24.00
2017-05-28T08:50:57.621Z,24.00
2017-05-28T08:53:26.176Z,24.10
2017-05-28T08:55:55.502Z,24.20
2017-05-28T08:58:23.836Z,24.30
2017-05-28T09:00:52.172Z,24.20
2017-05-28T09:03:20.717Z,24.30
2017-05-28T09:05:49.708Z,24.30
2017-05-28T09:08:18.050Z,24.40
2017-05-28T09:10:46.740Z,24.30
2017-05-28T09:13:15.086Z,24.10
2017-05-28T09:15:43.427Z,24.20
2017-05-28T09:18:11.956Z,24.10
2017-05-28T09:20:40.321Z,24.20
2017-05-28T09:23:08.656Z,24.20
2017-05-28T09:25:37.040Z,24.40
2017-05-28T09:28:05.417Z,24.60
2017-05-28T09:30:33.761Z,24.80
2017-05-28T09:33:02.273Z,25.00
2017-05-28T09:35:30.620Z,25.10
2017-05-28T09:37:58.956Z,25.20
2017-05-28T09:40:27.354Z,25.30
2017-05-28T09:42:55.722Z,25.30
2017-05-28T09:45:24.057Z,25.30
2017-05-28T09:47:52.436Z,25.30
2017-05-28T09:50:20.765Z,25.30
2017-05-28T09:52:49.093Z,25.30
2017-05-28T09:55:17.024Z,25.30
2017-05-28T09:57:45.362Z,25.00
2017-05-28T10:00:13.696Z,24.90
2017-05-28T10:02:42.170Z,24.80
2017-05-28T10:05:10.501Z,24.70
2017-05-28T10:07:38.837Z,24.70
2017-05-28T10:10:07.489Z,24.80
2017-05-28T10:12:35.816Z,25.00
2017-05-28T10:15:04.157Z,25.20
2017-05-28T10:17:32.667Z,25.30
2017-05-28T10:20:01.038Z,25.30
2017-05-28T10:22:29.393Z,25.20
2017-05-28T10:24:58.182Z,25.10
2017-05-28T10:27:26.516Z,25.10
2017-05-28T10:29:54.932Z,25.10
2017-05-28T10:32:23.620Z,25.10
2017-05-28T10:34:51.959Z,25.00
2017-05-28T10:37:20.294Z,25.10
2017-05-28T10:39:48.949Z,25.10
2017-05-28T10:42:17.281Z,25.10
2017-05-28T10:44:45.647Z,25.20
2017-05-28T10:47:14.016Z,25.30
2017-05-28T10:49:42.345Z,25.40
2017-05-28T10:52:10.718Z,25.40
2017-05-28T10:54:38.521Z,25.40
2017-05-28T10:57:06.859Z,25.40
2017-05-28T10:59:35.201Z,25.40
2017-05-28T11:02:03.615Z,25.50
2017-05-28T11:04:31.940Z,25.50
2017-05-28T11:07:00.267Z,25.50
2017-05-28T11:09:28.165Z,25.40
2017-05-28T11:11:56.492Z,25.30
2017-05-28T11:14:24.868Z,25.30
2017-05-28T11:16:53.609Z,25.30
2017-05-28T11:19:21.947Z,25.20
2017-05-28T11:21:57.354Z,25.20
2017-05-28T11:24:25.714Z,25.20
2017-05-28T11:26:54.072Z,25.30
2017-05-28T11:29:21.953Z,25.30
2017-05-28T11:31:49.508Z,25.30
2017-05-28T11:34:17.847Z,25.60
2017-05-28T11:36:46.460Z,25.70
2017-05-28T11:39:14.797Z,25.80
2017-05-28T11:41:43.128Z,25.80
2017-05-28T11:44:11.496Z,25.90
2017-05-28T11:46:39.865Z,25.80
2017-05-28T11:49:08.194Z,25.80
2017-05-28T11:51:36.697Z,25.80
2017-05-28T11:54:05.020Z,25.90
2017-05-28T11:56:33.364Z,25.90
2017-05-28T11:59:01.872Z,25.90
2017-05-28T12:01:30.208Z,25.90
2017-05-28T12:03:58.535Z,26.00
2017-05-28T12:06:27.116Z,26.00
2017-05-28T12:08:55.440Z,26.10
2017-05-28T12:11:23.788Z,26.10
2017-05-28T12:13:52.350Z,26.20
2017-05-28T12:16:21.129Z,26.20
2017-05-28T12:18:49.453Z,26.30
2017-05-28T12:21:17.064Z,26.20
2017-05-28T12:23:45.392Z,26.40
2017-05-28T12:26:13.753Z,26.30
2017-05-28T12:28:42.145Z,26.30
2017-05-28T12:31:10.466Z,26.40
2017-05-28T12:33:38.791Z,26.40
2017-05-28T12:36:07.336Z,26.50
2017-05-28T12:38:35.671Z,26.50
2017-05-28T12:41:04.051Z,26.70
2017-05-28T12:43:32.576Z,26.90
2017-05-28T12:46:00.901Z,26.90
2017-05-28T12:48:29.220Z,27.00
2017-05-28T12:50:57.741Z,27.10
2017-05-28T12:53:26.066Z,27.00
2017-05-28T12:55:54.389Z,27.00
2017-05-28T12:58:22.849Z,27.10
2017-05-28T13:00:51.168Z,27.30
2017-05-28T13:03:19.493Z,27.30
2017-05-28T13:05:48.089Z,27.30
2017-05-28T13:08:16.403Z,27.20
2017-05-28T13:10:43.964Z,27.20
2017-05-28T13:13:11.556Z,27.20
2017-05-28T13:15:39.110Z,27.20
2017-05-28T13:18:07.424Z,27.30
2017-05-28T13:20:35.910Z,27.40
2017-05-28T13:23:04.248Z,27.50
2017-05-28T13:25:32.564Z,27.60
2017-05-28T13:28:01.077Z,27.50
2017-05-28T13:30:29.396Z,27.60
2017-05-28T13:32:57.720Z,27.40
2017-05-28T13:35:26.212Z,27.40
2017-05-28T13:37:54.527Z,27.60
2017-05-28T13:40:22.853Z,27.80
2017-05-28T13:42:51.355Z,28.00
2017-05-28T13:45:19.674Z,28.10
2017-05-28T13:47:47.996Z,28.20
2017-05-28T13:50:17.070Z,28.20
2017-05-28T13:52:45.391Z,28.20
2017-05-28T13:55:13.728Z,28.10
2017-05-28T13:57:42.078Z,28.10
2017-05-28T14:00:10.400Z,27.90
2017-05-28T14:02:38.720Z,28.00
2017-05-28T14:05:07.174Z,27.90
2017-05-28T14:07:35.511Z,27.90
2017-05-28T14:10:03.875Z,27.90
2017-05-28T14:12:32.251Z,27.80
2017-05-28T14:15:00.577Z,27.80
2017-05-28T14:17:28.896Z,27.80
2017-05-28T14:19:57.408Z,27.70
2017-05-28T14:22:25.739Z,27.70
2017-05-28T14:24:54.116Z,27.60
2017-05-28T14:27:22.501Z,27.50
2017-05-28T14:29:50.829Z,27.40
2017-05-28T14:32:19.153Z,27.50
2017-05-28T14:34:47.517Z,27.50
2017-05-28T14:37:15.844Z,27.40
2017-05-28T14:39:44.176Z,27.30
2017-05-28T14:42:12.701Z,27.40
2017-05-28T14:44:41.026Z,27.20
2017-05-28T14:47:09.356Z,27.20
2017-05-28T14:49:38.144Z,27.10
2017-05-28T14:52:06.472Z,27.10
2017-05-28T14:54:34.796Z,27.00
2017-05-28T14:57:03.492Z,27.00
2017-05-28T14:59:31.820Z,26.90
2017-05-28T15:02:00.147Z,26.80
2017-05-28T15:04:28.592Z,26.60
2017-05-28T15:06:56.929Z,26.40
2017-05-28T15:09:25.261Z,26.30
2017-05-28T15:11:53.856Z,26.20
2017-05-28T15:14:22.177Z,26.20
2017-05-28T15:16:50.513Z,26.10
2017-05-28T15:19:18.872Z,26.00
2017-05-28T15:21:47.203Z,25.80
2017-05-28T15:24:15.524Z,25.70
2017-05-28T15:26:44.033Z,25.80
2017-05-28T15:29:12.354Z,25.70
2017-05-28T15:31:40.684Z,25.60
2017-05-28T15:34:09.177Z,25.50
2017-05-28T15:36:37.500Z,25.40
2017-05-28T15:39:05.829Z,25.40
2017-05-28T15:41:34.201Z,25.40
2017-05-28T15:44:02.529Z,25.40
2017-05-28T15:46:30.852Z,25.40
2017-05-28T15:48:59.541Z,25.30
2017-05-28T15:51:27.873Z,25.30
2017-05-28T15:53:56.211Z,25.30
2017-05-28T15:56:24.762Z,25.20
2017-05-28T15:58:53.095Z,25.10
2017-05-28T16:01:21.417Z,25.20
2017-05-28T16:03:49.792Z,25.10
2017-05-28T16:06:18.116Z,25.00
2017-05-28T16:08:46.444Z,25.00
2017-05-28T16:11:14.999Z,25.00
2017-05-28T16:13:43.341Z,25.00
2017-05-28T16:16:11.680Z,25.00
2017-05-28T16:18:40.161Z,25.00
2017-05-28T16:21:08.525Z,24.90
2017-05-28T16:23:36.856Z,24.90
2017-05-28T16:26:06.221Z,24.80
2017-05-28T16:28:34.552Z,24.70
2017-05-28T16:31:02.877Z,24.60
2017-05-28T16:33:31.477Z,24.50
2017-05-28T16:35:59.812Z,24.50
2017-05-28T16:38:28.137Z,24.40
2017-05-28T16:40:56.816Z,24.40
2017-05-28T16:43:25.151Z,24.30
2017-05-28T16:45:53.588Z,24.20
2017-05-28T16:48:22.137Z,24.00
2017-05-28T16:50:49.725Z,24.00
2017-05-28T16:53:18.085Z,23.80
2017-05-28T16:55:46.600Z,23.70
2017-05-28T16:58:14.928Z,23.60
2017-05-28T17:00:43.256Z,23.60
2017-05-28T17:03:11.720Z,23.60
2017-05-28T17:05:40.054Z,23.60
2017-05-28T17:08:08.396Z,23.60
2017-05-28T17:10:36.925Z,23.50
2017-05-28T17:13:04.504Z,23.50
2017-05-28T17:15:32.089Z,23.50
2017-05-28T17:18:00.625Z,23.50
2017-05-28T17:20:28.995Z,23.50
2017-05-28T17:22:57.354Z,23.50
2017-05-28T17:25:26.152Z,23.50
2017-05-28T17:27:54.552Z,23.40
2017-05-28T17:30:22.877Z,23.30
2017-05-28T17:32:51.359Z,23.20
2017-05-28T17:35:20.442Z,23.10
2017-05-28T17:37:48.919Z,23.00
2017-05-28T17:40:17.693Z,23.00
2017-05-28T17:42:49.601Z,22.90
2017-05-28T17:45:18.354Z,22.80
2017-05-28T17:47:46.760Z,22.80
2017-05-28T17:50:15.096Z,22.70
2017-05-28T17:52:43.800Z,22.70
2017-05-28T17:55:11.419Z,22.60
2017-05-28T17:57:40.803Z,22.50
2017-05-28T18:00:09.612Z,22.50
2017-05-28T18:02:38.045Z,22.40
2017-05-28T18:05:07.190Z,22.40
2017-05-28T18:07:35.714Z,22.30
2017-05-28T18:10:03.429Z,22.30
2017-05-28T18:12:31.781Z,22.10
2017-05-28T18:15:00.426Z,22.10
2017-05-28T18:17:29.374Z,22.00
2017-05-28T18:19:57.725Z,21.90
2017-05-28T18:22:26.402Z,21.90
2017-05-28T18:24:54.837Z,21.80
2017-05-28T18:27:23.227Z,21.80
2017-05-28T18:29:51.923Z,21.60
2017-05-28T18:32:20.284Z,21.60
2017-05-28T18:34:49.323Z,21.50
2017-05-28T18:37:17.793Z,21.40
2017-05-28T18:39:46.753Z,21.30
2017-05-28T18:42:15.610Z,21.30
2017-05-28T18:44:44.206Z,21.20
2017-05-28T18:47:12.556Z,21.10
2017-05-28T18:49:41.481Z,21.00
2017-05-28T18:52:10.169Z,20.90
2017-05-28T18:54:38.612Z,20.90
2017-05-28T18:57:07.242Z,20.80
2017-05-28T18:59:36.544Z,20.70
2017-05-28T19:02:04.902Z,20.60
2017-05-28T19:04:33.262Z,20.60
2017-05-28T19:07:01.820Z,20.50
2017-05-28T19:09:29.421Z,20.50
2017-05-28T19:11:57.772Z,20.40
2017-05-28T19:14:26.263Z,20.40
2017-05-28T19:16:54.647Z,20.30
2017-05-28T19:19:23.098Z,20.30
2017-05-28T19:21:51.609Z,20.20
2017-05-28T19:24:19.962Z,20.20
2017-05-28T19:26:48.416Z,20.10
2017-05-28T19:29:16.955Z,20.00
2017-05-28T19:31:45.320Z,19.90
2017-05-28T19:34:13.685Z,19.80
2017-05-28T19:36:43.893Z,19.80
2017-05-28T19:39:12.451Z,19.70
2017-05-28T19:41:41.800Z,19.70
2017-05-28T19:44:11.519Z,19.60
2017-05-28T19:46:39.890Z,19.50
2017-05-28T19:49:09.531Z,19.40
2017-05-28T19:51:38.275Z,19.30
2017-05-28T19:54:06.676Z,19.20
2017-05-28T19:56:35.067Z,19.20
2017-05-28T19:59:03.638Z,19.10
2017-05-28T20:01:32.315Z,18.90
2017-05-28T20:04:00.028Z,18.90
2017-05-28T20:06:29.055Z,18.90
2017-05-28T20:08:57.795Z,18.80
2017-05-28T20:11:29.964Z,18.70
2017-05-28T20:13:59.029Z,18.60
2017-05-28T20:16:27.925Z,18.60
2017-05-28T20:18:56.422Z,18.50
2017-05-28T20:21:24.024Z,18.50
2017-05-28T20:23:52.395Z,18.40
2017-05-28T20:26:20.897Z,18.50
2017-05-28T20:28:50.058Z,18.40
2017-05-28T20:31:21.548Z,18.40
2017-05-28T20:33:50.113Z,18.30
2017-05-28T20:36:19.402Z,18.20
2017-05-28T20:38:47.873Z,18.20
2017-05-28T20:41:16.368Z,18.20
2017-05-28T20:43:44.832Z,18.00
2017-05-28T20:46:13.200Z,18.00
2017-05-28T20:48:42.217Z,17.90
2017-05-28T20:51:11.829Z,17.80
2017-05-28T20:53:40.552Z,17.80
2017-05-28T20:56:09.476Z,17.80
2017-05-28T20:58:38.401Z,17.70
2017-05-28T21:01:07.649Z,17.70
2017-05-28T21:03:37.041Z,17.70
2017-05-28T21:06:04.673Z,17.70
2017-05-28T21:08:33.033Z,17.50
2017-05-28T21:11:01.372Z,17.50
2017-05-28T21:13:30.534Z,17.40
2017-05-28T21:15:59.302Z,17.30
2017-05-28T21:18:27.891Z,17.30
2017-05-28T21:20:56.649Z,17.30
2017-05-28T21:23:24.998Z,17.20
2017-05-28T21:25:53.345Z,17.20
2017-05-28T21:28:22.109Z,17.20
2017-05-28T21:30:50.448Z,17.10
2017-05-28T21:33:18.417Z,17.10
2017-05-28T21:35:46.917Z,17.00
2017-05-28T21:38:15.262Z,17.00
2017-05-28T21:40:43.688Z,16.90
2017-05-28T21:43:12.483Z,16.90
2017-05-28T21:45:41.349Z,16.80
2017-05-28T21:48:09.692Z,16.70
2017-05-28T21:50:38.077Z,16.80
2017-05-28T21:53:06.418Z,16.70
2017-05-28T21:55:34.769Z,16.70
2017-05-28T21:58:03.305Z,16.60
2017-05-28T22:00:30.893Z,16.60
2017-05-28T22:02:59.240Z,16.60
2017-05-28T22:05:27.636Z,16.50
2017-05-28T22:07:56.006Z,16.40
2017-05-28T22:10:24.360Z,16.30
2017-05-28T22:12:52.947Z,16.40
2017-05-28T22:15:21.293Z,16.40
2017-05-28T22:17:49.652Z,16.30
2017-05-28T22:20:18.432Z,16.40
2017-05-28T22:22:46.773Z,16.40
2017-05-28T22:25:15.115Z,16.30
2017-05-28T22:27:43.484Z,16.20
2017-05-28T22:30:11.815Z,16.20
2017-05-28T22:32:39.402Z,16.20
2017-05-28T22:35:07.992Z,16.20
2017-05-28T22:37:36.339Z,16.20
2017-05-28T22:40:04.717Z,16.10
2017-05-28T22:42:33.108Z,16.10
2017-05-28T22:45:01.464Z,16.10
2017-05-28T22:47:29.848Z,16.10
2017-05-28T22:49:58.501Z,16.00
2017-05-28T22:52:26.851Z,16.00
2017-05-28T22:54:54.435Z,15.90
2017-05-28T22:57:22.824Z,15.80
2017-05-28T22:59:51.165Z,15.80
2017-05-28T23:02:19.532Z,15.80
2017-05-28T23:04:47.161Z,15.80
2017-05-28T23:07:15.507Z,15.70
2017-05-28T23:09:43.068Z,15.70
2017-05-28T23:12:11.596Z,15.70
2017-05-28T23:14:39.162Z,15.70
2017-05-28T23:17:07.528Z,15.70
2017-05-28T23:19:36.038Z,15.60
2017-05-28T23:22:04.376Z,15.60
2017-05-28T23:24:32.732Z,15.60
2017-05-28T23:27:01.235Z,15.60
2017-05-28T23:29:29.636Z,15.50
2017-05-28T23:31:57.971Z,15.50
2017-05-28T23:34:26.465Z,15.60
2017-05-28T23:36:54.808Z,15.40
2017-05-28T23:39:23.136Z,15.40
2017-05-28T23:41:50.851Z,15.40
2017-05-28T23:44:19.199Z,15.30
2017-05-28T23:46:47.543Z,15.30
2017-05-28T23:49:16.409Z,15.30
2017-05-28T23:51:44.744Z,15.20
2017-05-28T23:54:13.109Z,15.20
2017-05-28T23:56:41.714Z,15.20
2017-05-28T23:59:10.068Z,15.20
